Time;durP1;ratioP1;P1;durP2;ratioP2;P2;SDS_P1;SDS_P2;PMS_P1;PMS_P2;Temp;Humidity;BMP_temperature;BMP_pressure;BME280_temperature;BME280_humidity;BME280_pressure;Samples;Min_cycle;Max_cycle;Signal;HPM_P1;HPM_P2
2023/10/10 00:01:18;;;;;;;8.70;7.87;;;20.00;99.90;;;;;;5021464;28;20422;-74
2023/10/10 00:03:49;;;;;;;8.00;7.03;;;20.00;99.90;;;;;;5039409;28;20427;-74
2023/10/10 00:06:16;;;;;;;9.17;8.27;;;20.00;99.90;;;;;;5039256;28;20994;-73
2023/10/10 00:08:46;;;;;;;9.33;8.40;;;20.00;99.90;;;;;;5039417;28;20457;-73
2023/10/10 00:11:16;;;;;;;11.47;9.03;;;20.00;99.90;;;;;;5021734;28;20499;-74
2023/10/10 00:13:43;;;;;;;9.40;7.97;;;19.90;99.90;;;;;;5021056;28;20955;-74
2023/10/10 00:16:23;;;;;;;9.03;8.20;;;20.00;99.90;;;;;;4989118;28;21046;-74
2023/10/10 00:18:55;;;;;;;10.70;8.57;;;19.90;99.90;;;;;;5038684;28;20447;-73
2023/10/10 00:21:28;;;;;;;10.03;7.93;;;19.90;99.90;;;;;;5005272;28;20432;-74
2023/10/10 00:24:00;;;;;;;9.87;8.57;;;20.00;99.90;;;;;;5021157;28;20437;-74
2023/10/10 00:26:29;;;;;;;8.33;7.27;;;19.90;99.90;;;;;;5009600;28;20508;-74
2023/10/10 00:28:55;;;;;;;9.30;8.23;;;19.90;99.90;;;;;;5038886;28;20990;-73
2023/10/10 00:31:31;;;;;;;9.87;8.47;;;19.90;99.90;;;;;;5020863;28;20419;-74
2023/10/10 00:33:58;;;;;;;9.00;8.07;;;19.90;99.90;;;;;;5020626;28;21083;-73
2023/10/10 00:36:35;;;;;;;10.00;9.10;;;19.90;99.90;;;;;;5020825;28;21335;-74
2023/10/10 00:39:22;;;;;;;10.43;7.83;;;19.90;99.90;;;;;;5004977;28;20539;-74
2023/10/10 00:41:53;;;;;;;9.63;8.47;;;19.90;99.90;;;;;;5004327;28;20455;-74
2023/10/10 00:44:25;;;;;;;9.17;8.27;;;19.90;99.90;;;;;;5004140;28;20956;-73
2023/10/10 00:46:55;;;;;;;10.17;7.80;;;19.80;99.80;;;;;;5004816;28;20805;-74
2023/10/10 00:49:31;;;;;;;10.53;9.00;;;19.90;99.90;;;;;;5004304;28;20451;-74
2023/10/10 00:52:06;;;;;;;9.13;8.23;;;19.90;99.90;;;;;;5025032;28;20438;-74
2023/10/10 00:54:43;;;;;;;9.30;8.27;;;19.80;99.80;;;;;;5003094;28;20434;-73
2023/10/10 00:57:13;;;;;;;10.10;7.53;;;19.80;99.80;;;;;;5020916;28;20571;-74
2023/10/10 01:02:16;;;;;;;9.57;8.07;;;19.80;99.80;;;;;;5020831;28;21350;-73
2023/10/10 01:04:49;;;;;;;8.83;7.60;;;19.80;99.70;;;;;;5020370;28;20483;-74
2023/10/10 01:07:25;;;;;;;11.13;8.27;;;19.90;99.80;;;;;;5004184;28;20463;-74
2023/10/10 01:12:50;;;;;;;10.97;8.40;;;19.80;99.80;;;;;;5055948;28;20503;-70
2023/10/10 01:15:26;;;;;;;8.87;7.97;;;19.70;99.70;;;;;;5048910;28;20441;-71
2023/10/10 01:17:59;;;;;;;9.13;7.70;;;19.70;99.70;;;;;;5050255;28;20482;-70
2023/10/10 01:23:07;;;;;;;9.20;7.90;;;19.70;99.70;;;;;;5040334;28;21532;-71
2023/10/10 01:25:42;;;;;;;10.83;7.83;;;19.70;99.70;;;;;;5058524;28;20437;-71
2023/10/10 01:31:24;;;;;;;9.30;7.93;;;19.80;99.70;;;;;;5038840;28;20444;-70
2023/10/10 01:33:50;;;;;;;10.87;9.20;;;19.70;99.60;;;;;;5046871;28;20422;-70
2023/10/10 01:36:29;;;;;;;11.07;9.30;;;19.70;99.60;;;;;;5038564;28;20449;-70
2023/10/10 01:38:59;;;;;;;9.57;8.27;;;19.70;99.60;;;;;;5058053;28;20498;-70
2023/10/10 01:44:22;;;;;;;9.70;8.70;;;19.70;99.60;;;;;;5058707;28;21065;-70
2023/10/10 01:46:51;;;;;;;9.47;7.73;;;19.60;99.50;;;;;;5039536;28;21407;-70
2023/10/10 01:49:21;;;;;;;8.60;7.73;;;19.60;99.50;;;;;;5056632;28;20898;-70
2023/10/10 01:51:58;;;;;;;8.70;7.80;;;19.60;99.50;;;;;;5057023;28;20764;-70
2023/10/10 01:54:46;;;;;;;9.20;8.30;;;19.60;99.50;;;;;;5038922;28;21206;-70
2023/10/10 01:57:22;;;;;;;9.10;7.70;;;19.60;99.50;;;;;;5020761;28;20855;-71
2023/10/10 01:59:57;;;;;;;9.40;8.40;;;19.60;99.50;;;;;;5033948;28;20491;-70
2023/10/10 02:02:30;;;;;;;9.00;7.50;;;19.60;99.50;;;;;;5040411;28;20420;-70
2023/10/10 02:04:59;;;;;;;9.60;8.37;;;19.60;99.80;;;;;;5038825;28;20929;-70
2023/10/10 02:07:31;;;;;;;11.60;7.90;;;19.60;99.50;;;;;;5046631;28;20995;-70
2023/10/10 02:10:12;;;;;;;8.30;7.40;;;19.60;99.50;;;;;;5056895;28;20520;-71
2023/10/10 02:12:51;;;;;;;9.33;8.43;;;19.60;99.40;;;;;;5056621;28;20940;-70
2023/10/10 02:15:26;;;;;;;8.40;7.27;;;19.60;99.40;;;;;;5036030;28;20542;-70
2023/10/10 02:18:04;;;;;;;7.83;7.13;;;19.50;99.40;;;;;;5056279;28;20472;-70
2023/10/10 02:20:49;;;;;;;9.80;8.73;;;19.50;99.40;;;;;;5048210;28;20842;-70
2023/10/10 02:23:32;;;;;;;9.47;8.47;;;19.50;99.40;;;;;;5039782;28;20459;-70
2023/10/10 02:26:14;;;;;;;9.13;8.20;;;19.50;99.30;;;;;;5043489;28;20604;-70
2023/10/10 02:29:16;;;;;;;9.63;8.57;;;19.50;99.30;;;;;;5058511;28;20417;-70
2023/10/10 02:31:46;;;;;;;8.90;7.80;;;19.50;99.30;;;;;;5056790;28;20484;-70
2023/10/10 02:34:12;;;;;;;8.47;7.47;;;19.50;99.30;;;;;;5056839;28;20409;-70
2023/10/10 02:36:42;;;;;;;8.80;7.83;;;19.50;99.30;;;;;;5020767;28;20446;-70
2023/10/10 02:41:51;;;;;;;8.47;7.67;;;19.50;99.30;;;;;;5023232;28;20432;-70
2023/10/10 02:47:06;;;;;;;9.00;8.10;;;19.40;99.20;;;;;;5043563;28;20465;-70
2023/10/10 02:49:37;;;;;;;9.33;8.43;;;19.50;99.30;;;;;;5060485;28;20965;-70
2023/10/10 02:52:14;;;;;;;9.70;8.53;;;19.50;99.30;;;;;;5035230;28;20454;-70
2023/10/10 02:54:54;;;;;;;10.33;9.07;;;19.40;99.30;;;;;;5059893;28;20461;-70
2023/10/10 03:00:15;;;;;;;10.13;8.37;;;19.40;99.20;;;;;;5061417;28;21052;-71
2023/10/10 03:02:58;;;;;;;10.10;9.10;;;19.40;99.30;;;;;;5059858;28;20547;-71
2023/10/10 03:05:50;;;;;;;9.53;8.60;;;19.40;99.30;;;;;;5017942;28;20513;-70
2023/10/10 03:08:35;;;;;;;10.13;9.07;;;19.40;99.20;;;;;;5059135;28;20434;-70
2023/10/10 03:11:35;;;;;;;10.23;8.93;;;19.40;99.20;;;;;;5060768;28;20486;-70
2023/10/10 03:14:07;;;;;;;8.63;7.73;;;19.40;99.40;;;;;;5050388;28;20439;-71
2023/10/10 03:16:59;;;;;;;10.70;8.87;;;19.30;99.20;;;;;;5050038;28;20443;-70
2023/10/10 03:19:28;;;;;;;11.10;8.47;;;19.30;99.20;;;;;;5058444;28;21021;-70
2023/10/10 03:25:07;;;;;;;9.83;8.00;;;19.30;99.20;;;;;;5053206;28;20511;-70
2023/10/10 03:27:54;;;;;;;11.17;8.90;;;19.40;99.30;;;;;;5060566;28;20433;-70
2023/10/10 05:23:29;;;;;;;9.60;8.67;;;19.30;99.30;;;;;;5058397;28;20469;-70
2023/10/10 05:25:23;;;;;;;10.50;8.40;;;19.00;98.90;;;;;;5034825;28;20452;-71
2023/10/10 05:27:51;;;;;;;10.00;8.10;;;18.90;98.90;;;;;;5026759;28;20427;-71
2023/10/10 05:30:25;;;;;;;10.20;7.17;;;18.90;98.80;;;;;;5027857;28;21145;-71
2023/10/10 05:33:01;;;;;;;11.63;8.60;;;18.90;98.80;;;;;;5035854;28;20415;-71
2023/10/10 05:35:36;;;;;;;9.40;8.40;;;18.90;98.80;;;;;;5019549;28;20464;-71
2023/10/10 05:38:09;;;;;;;7.90;6.90;;;18.90;98.80;;;;;;5019880;28;20462;-71
2023/10/10 05:40:43;;;;;;;9.80;7.83;;;18.90;99.20;;;;;;5048114;28;20929;-71
2023/10/10 05:43:15;;;;;;;10.70;8.43;;;18.90;98.90;;;;;;5007539;28;21067;-71
2023/10/10 05:45:44;;;;;;;12.43;8.00;;;18.90;98.80;;;;;;5052581;28;20473;-71
2023/10/10 05:48:12;;;;;;;10.20;8.10;;;18.90;98.80;;;;;;5003201;28;20456;-70
2023/10/10 05:50:40;;;;;;;11.63;8.70;;;18.90;98.80;;;;;;5037206;28;20430;-71
2023/10/10 05:53:07;;;;;;;8.30;7.40;;;18.90;98.80;;;;;;5009604;28;20485;-70
2023/10/10 05:55:37;;;;;;;10.00;7.40;;;18.90;98.80;;;;;;5001654;28;21019;-71
2023/10/10 05:58:06;;;;;;;8.57;6.97;;;18.90;98.80;;;;;;5042812;28;20463;-71
2023/10/10 06:00:44;;;;;;;9.53;7.53;;;18.90;98.80;;;;;;5043530;28;20432;-74
2023/10/10 06:03:12;;;;;;;9.77;7.70;;;18.90;98.80;;;;;;5002910;28;20434;-71
2023/10/10 06:05:45;;;;;;;9.43;7.40;;;18.90;98.80;;;;;;5018998;28;20461;-71
2023/10/10 06:08:15;;;;;;;8.00;7.20;;;18.90;98.70;;;;;;5052859;28;20529;-71
2023/10/10 06:10:44;;;;;;;10.60;8.73;;;18.90;98.70;;;;;;5029193;28;20429;-71
2023/10/10 06:13:29;;;;;;;7.57;6.77;;;18.90;98.70;;;;;;5014781;28;20503;-71
2023/10/10 06:16:17;;;;;;;8.80;7.80;;;18.90;98.80;;;;;;5056199;28;20561;-72
2023/10/10 06:18:50;;;;;;;8.10;7.00;;;18.80;99.10;;;;;;5059013;28;20465;-71
2023/10/10 06:21:20;;;;;;;9.70;7.10;;;18.80;98.70;;;;;;5059060;28;20632;-71
2023/10/10 06:23:53;;;;;;;8.00;7.20;;;18.80;98.70;;;;;;5059082;28;20464;-71
2023/10/10 06:26:21;;;;;;;8.20;6.60;;;18.80;98.60;;;;;;5059709;28;20499;-70
2023/10/10 06:28:53;;;;;;;7.50;6.73;;;18.80;98.70;;;;;;5061186;28;20470;-71
2023/10/10 06:31:33;;;;;;;9.47;7.73;;;18.80;98.60;;;;;;5059335;28;20518;-72
2023/10/10 06:34:19;;;;;;;8.93;6.97;;;18.80;98.60;;;;;;5054650;28;20984;-70
2023/10/10 06:36:52;;;;;;;8.83;7.60;;;18.80;98.60;;;;;;5052298;28;20440;-72
2023/10/10 06:39:21;;;;;;;10.17;7.90;;;18.80;98.70;;;;;;5042829;28;20419;-72
2023/10/10 06:41:50;;;;;;;8.60;6.63;;;18.80;98.70;;;;;;5057896;28;20429;-71
2023/10/10 06:44:31;;;;;;;12.13;7.40;;;18.80;98.70;;;;;;5057440;28;20451;-72
2023/10/10 06:47:00;;;;;;;9.60;8.07;;;18.70;98.60;;;;;;5059482;28;20441;-71
2023/10/10 06:49:43;;;;;;;10.90;7.20;;;18.80;98.70;;;;;;5030292;28;20486;-73
2023/10/10 06:52:18;;;;;;;10.57;7.70;;;18.80;99.00;;;;;;5057607;28;21008;-72
2023/10/10 06:54:54;;;;;;;10.10;8.20;;;18.80;98.70;;;;;;5041295;28;21312;-72
2023/10/10 06:57:36;;;;;;;9.00;7.07;;;18.70;98.60;;;;;;5037902;28;20886;-72
2023/10/10 07:00:53;;;;;;;9.10;7.00;;;18.70;98.60;;;;;;5037975;28;20485;-72
2023/10/10 07:02:57;;;;;;;10.03;7.07;;;18.80;98.60;;;;;;5040580;28;20504;-72
2023/10/10 07:05:33;;;;;;;8.90;7.10;;;18.70;98.60;;;;;;5041092;28;20440;-71
2023/10/10 07:08:12;;;;;;;9.80;7.70;;;18.70;98.60;;;;;;5052568;28;20924;-74
2023/10/10 07:10:42;;;;;;;8.70;7.20;;;18.70;98.60;;;;;;5037888;28;20427;-72
2023/10/10 07:13:19;;;;;;;9.57;6.90;;;18.70;98.70;;;;;;5039635;28;20531;-73
2023/10/10 07:15:53;;;;;;;7.87;7.07;;;18.70;98.60;;;;;;5021724;28;20531;-74
2023/10/10 07:18:23;;;;;;;9.60;7.80;;;18.70;98.60;;;;;;5038322;28;21030;-75
2023/10/10 07:21:18;;;;;;;8.10;6.70;;;18.70;98.60;;;;;;5006599;28;20502;-74
2023/10/10 07:24:13;;;;;;;9.40;8.13;;;18.70;98.70;;;;;;5040213;28;20437;-73
2023/10/10 07:26:42;;;;;;;7.40;6.63;;;18.70;98.60;;;;;;5022059;28;20492;-75
2023/10/10 07:29:29;;;;;;;8.80;7.57;;;18.70;98.60;;;;;;5040187;28;20423;-75
2023/10/10 07:32:04;;;;;;;9.00;6.30;;;18.70;98.60;;;;;;5039947;28;20410;-74
2023/10/10 07:34:38;;;;;;;8.03;6.90;;;18.70;98.60;;;;;;5038697;28;20510;-75
2023/10/10 07:37:09;;;;;;;9.30;7.50;;;18.70;98.60;;;;;;5039808;28;20496;-74
2023/10/10 07:39:36;;;;;;;9.27;7.47;;;18.70;98.60;;;;;;5042947;28;20542;-77
2023/10/10 07:42:09;;;;;;;8.80;7.30;;;18.70;98.60;;;;;;5058158;28;20496;-76
2023/10/10 07:44:36;;;;;;;9.70;7.10;;;18.70;98.60;;;;;;5041201;28;20437;-73
2023/10/10 07:47:25;;;;;;;13.13;7.80;;;18.70;98.60;;;;;;5059267;28;20469;-74
2023/10/10 07:50:00;;;;;;;16.00;12.30;;;18.70;98.80;;;;;;5057300;28;20475;-75
2023/10/10 07:52:35;;;;;;;17.50;12.47;;;18.70;99.00;;;;;;5032282;28;20528;-75
2023/10/10 07:55:04;;;;;;;15.47;11.57;;;18.70;99.10;;;;;;5057282;28;20843;-75
2023/10/10 07:57:55;;;;;;;19.03;12.57;;;18.70;99.00;;;;;;5024899;28;21035;-75
2023/10/10 08:00:17;;;;;;;19.00;13.20;;;18.70;99.20;;;;;;5040976;28;20503;-73
2023/10/10 08:02:49;;;;;;;17.70;13.40;;;18.60;99.40;;;;;;5059158;28;20463;-75
2023/10/10 08:05:25;;;;;;;19.20;12.37;;;18.60;99.60;;;;;;5058601;28;20509;-74
2023/10/10 08:07:51;;;;;;;17.70;12.03;;;18.60;99.80;;;;;;5031294;28;20421;-74
2023/10/10 08:10:30;;;;;;;17.20;12.17;;;18.60;99.90;;;;;;5048564;28;20783;-74
2023/10/10 08:12:57;;;;;;;19.90;12.43;;;18.60;99.90;;;;;;5053054;28;21044;-77
2023/10/10 08:15:26;;;;;;;16.40;11.70;;;18.50;99.90;;;;;;5039928;28;20452;-77
2023/10/10 08:17:54;;;;;;;16.73;12.87;;;18.60;99.90;;;;;;5039957;28;20476;-76
2023/10/10 08:20:36;;;;;;;16.07;11.93;;;18.60;99.90;;;;;;5040723;28;20445;-76
2023/10/10 08:23:06;;;;;;;16.00;12.90;;;18.50;99.90;;;;;;5034429;28;20461;-76
2023/10/10 08:25:33;;;;;;;14.90;10.57;;;18.60;99.90;;;;;;5055927;28;21221;-77
2023/10/10 08:28:00;;;;;;;14.40;11.20;;;18.50;99.90;;;;;;5050252;28;20436;-76
2023/10/10 08:30:29;;;;;;;18.00;11.87;;;18.60;99.90;;;;;;5056579;28;20437;-77
2023/10/10 08:32:56;;;;;;;15.90;11.73;;;18.60;99.90;;;;;;5040329;28;20434;-76
2023/10/10 08:35:23;;;;;;;18.90;11.27;;;18.60;99.90;;;;;;5056019;28;20595;-77
2023/10/10 08:37:52;;;;;;;14.23;10.50;;;18.60;99.90;;;;;;5031806;28;20479;-77
2023/10/10 08:40:21;;;;;;;14.43;10.70;;;18.60;99.90;;;;;;5040596;28;20556;-75
2023/10/10 08:42:49;;;;;;;18.67;10.10;;;18.60;99.90;;;;;;5056333;28;20535;-76
2023/10/10 08:45:24;;;;;;;14.43;10.77;;;18.60;99.90;;;;;;5056013;28;20533;-76
2023/10/10 08:48:01;;;;;;;15.10;10.13;;;18.70;99.90;;;;;;5048507;28;20449;-78
2023/10/10 08:50:36;;;;;;;15.63;9.90;;;18.70;99.90;;;;;;5055714;28;20442;-76
2023/10/10 08:53:05;;;;;;;14.47;11.00;;;18.70;99.90;;;;;;5056624;28;20456;-77
2023/10/10 08:55:34;;;;;;;14.30;10.20;;;18.70;99.90;;;;;;5055021;28;20441;-76
2023/10/10 08:58:02;;;;;;;13.97;10.63;;;18.70;99.90;;;;;;5056771;28;20894;-76
2023/10/10 09:00:30;;;;;;;15.23;10.20;;;18.80;99.90;;;;;;5037838;28;20434;-77
2023/10/10 09:02:57;;;;;;;12.60;10.73;;;18.80;99.90;;;;;;5032303;28;20494;-77
2023/10/10 09:05:25;;;;;;;12.97;10.67;;;18.80;99.90;;;;;;5030561;28;20533;-77
2023/10/10 09:07:53;;;;;;;17.10;10.60;;;18.90;99.90;;;;;;5055697;28;20441;-76
2023/10/10 09:10:28;;;;;;;17.67;10.30;;;18.90;99.90;;;;;;5072400;28;20897;-76
2023/10/10 09:15:25;;;;;;;17.50;9.10;;;18.90;99.90;;;;;;5055057;28;20425;-77
2023/10/10 09:17:59;;;;;;;11.60;10.20;;;19.00;99.90;;;;;;5038480;28;20482;-76
2023/10/10 09:23:25;;;;;;;16.87;10.03;;;18.90;99.90;;;;;;4987318;26;20878;-72
2023/10/10 09:29:03;;;;;;;22.63;11.10;;;19.10;99.90;;;;;;5023433;28;20446;-72
2023/10/10 09:31:32;;;;;;;15.97;9.63;;;19.20;99.90;;;;;;5007613;28;20510;-71
2023/10/10 09:34:06;;;;;;;12.83;9.73;;;19.20;99.90;;;;;;5007978;28;20411;-72
2023/10/10 09:36:43;;;;;;;13.40;9.20;;;19.20;99.90;;;;;;5024297;28;20435;-72
2023/10/10 09:39:26;;;;;;;16.87;10.53;;;19.20;99.90;;;;;;5025535;28;20418;-76
2023/10/10 09:42:27;;;;;;;14.17;9.80;;;19.20;99.90;;;;;;5008466;28;20530;-73
2023/10/10 09:46:10;;;;;;;16.07;10.53;;;19.30;99.90;;;;;;5032858;28;20776;-71
2023/10/10 09:48:28;;;;;;;11.43;8.33;;;19.30;99.90;;;;;;4991214;28;20451;-71
2023/10/10 09:53:52;;;;;;;13.60;9.10;;;19.40;99.90;;;;;;5019536;28;20477;-74
2023/10/10 09:56:56;;;;;;;11.00;9.20;;;19.40;99.90;;;;;;5028593;28;20456;-73
2023/10/10 09:59:37;;;;;;;14.57;9.10;;;19.50;99.90;;;;;;5037627;28;20460;-74
2023/10/10 10:02:05;;;;;;;12.07;8.33;;;19.50;99.90;;;;;;5030164;28;20986;-77
2023/10/10 10:04:41;;;;;;;10.03;7.30;;;19.60;99.90;;;;;;5024955;28;20884;-78
2023/10/10 10:07:27;;;;;;;10.67;8.10;;;19.60;99.90;;;;;;5010275;28;20502;-74
2023/10/10 10:10:22;;;;;;;12.60;8.80;;;19.70;99.90;;;;;;5017897;28;20459;-74
2023/10/10 10:12:59;;;;;;;14.67;8.20;;;19.70;99.90;;;;;;5018273;28;20461;-74
2023/10/10 10:15:50;;;;;;;12.40;7.93;;;19.80;99.90;;;;;;5042121;28;20954;-74
2023/10/10 10:18:29;;;;;;;13.17;8.13;;;19.80;99.80;;;;;;5002070;28;20468;-74
2023/10/10 10:23:44;;;;;;;11.67;7.20;;;19.90;99.50;;;;;;5030194;28;20430;-74
2023/10/10 10:29:16;;;;;;;10.00;7.43;;;20.00;99.10;;;;;;5025763;28;20842;-73
2023/10/10 10:31:57;;;;;;;11.23;7.30;;;20.00;98.80;;;;;;5043029;28;20964;-73
2023/10/10 10:34:25;;;;;;;12.53;7.23;;;20.00;98.90;;;;;;4992881;28;20505;-73
2023/10/10 10:37:42;;;;;;;11.80;7.80;;;20.10;99.00;;;;;;5043568;28;20524;-73
2023/10/10 10:43:04;;;;;;;9.50;6.30;;;20.20;98.80;;;;;;5042760;28;20517;-73
2023/10/10 10:45:41;;;;;;;14.63;7.90;;;20.20;98.80;;;;;;5025164;28;20420;-74
2023/10/10 10:48:09;;;;;;;10.80;6.50;;;20.20;98.50;;;;;;5027142;28;20926;-74
2023/10/10 10:50:40;;;;;;;10.77;7.03;;;20.30;98.50;;;;;;5044361;28;20407;-73
2023/10/10 23:03:04;;;;;;;7.67;6.73;;;20.00;96.80;;;;;;5009299;23;1310502;-69
2023/10/10 23:05:33;;;;;;;8.47;6.90;;;20.00;96.60;;;;;;4978950;28;20695;-68
2023/10/10 23:08:05;;;;;;;8.17;6.93;;;20.00;96.60;;;;;;4990039;28;20424;-68
2023/10/10 23:10:34;;;;;;;13.07;6.60;;;20.00;96.60;;;;;;4998625;28;20445;-68
2023/10/10 23:13:01;;;;;;;7.10;6.40;;;20.00;96.50;;;;;;4965064;28;20491;-68
2023/10/10 23:15:30;;;;;;;7.23;6.50;;;20.00;96.50;;;;;;4981274;28;20441;-68
2023/10/10 23:17:59;;;;;;;9.23;6.33;;;20.00;96.50;;;;;;4971458;28;20537;-68
2023/10/10 23:20:26;;;;;;;6.33;5.70;;;20.10;96.50;;;;;;4973889;28;20846;-68
2023/10/10 23:22:54;;;;;;;6.37;5.77;;;20.10;96.40;;;;;;4971305;28;20513;-69
2023/10/10 23:25:20;;;;;;;9.50;7.00;;;20.00;96.40;;;;;;4976470;28;20450;-68
2023/10/10 23:27:48;;;;;;;7.67;6.33;;;20.00;96.40;;;;;;4980784;28;20440;-69
2023/10/10 23:30:21;;;;;;;6.93;6.27;;;20.00;96.30;;;;;;4990792;28;20444;-68
2023/10/10 23:32:48;;;;;;;8.90;6.47;;;20.00;96.30;;;;;;4982922;28;21167;-68
2023/10/10 23:35:21;;;;;;;8.00;6.40;;;20.00;96.30;;;;;;4981261;28;20857;-68
2023/10/10 23:37:51;;;;;;;7.80;6.47;;;20.00;96.30;;;;;;4998904;28;20488;-68
2023/10/10 23:40:21;;;;;;;6.77;6.00;;;20.00;96.30;;;;;;4997399;28;20466;-68
2023/10/10 23:42:50;;;;;;;7.60;6.70;;;20.00;96.30;;;;;;4987762;28;20526;-68
2023/10/10 23:45:24;;;;;;;8.40;6.83;;;20.00;96.20;;;;;;4968926;28;20587;-68
2023/10/10 23:47:55;;;;;;;7.20;5.90;;;20.00;96.30;;;;;;4983159;28;20440;-69
2023/10/10 23:50:24;;;;;;;7.13;6.10;;;20.00;96.20;;;;;;4997185;28;20508;-68
2023/10/10 23:53:01;;;;;;;6.67;5.97;;;20.00;96.20;;;;;;4981844;28;21156;-68
2023/10/10 23:55:36;;;;;;;7.40;6.20;;;20.00;96.30;;;;;;4997084;28;20668;-68
2023/10/10 23:58:05;;;;;;;8.00;6.47;;;20.00;96.20;;;;;;4972282;28;20810;-68
